createdAt,value
2019-02-08T00:01:50.314Z,33.70
2019-02-08T00:04:20.543Z,28.03
2019-02-08T00:06:51.944Z,30.40
2019-02-08T00:09:22.115Z,37.50
2019-02-08T00:11:52.733Z,34.57
2019-02-08T00:14:23.059Z,35.63
2019-02-08T00:16:53.131Z,33.83
2019-02-08T00:19:23.468Z,33.13
2019-02-08T00:21:53.530Z,29.17
2019-02-08T00:24:23.854Z,34.07
2019-02-08T00:26:54.336Z,27.70
2019-02-08T00:29:24.353Z,35.40
2019-02-08T00:31:54.427Z,34.47
2019-02-08T00:34:24.971Z,43.30
2019-02-08T00:36:55.283Z,40.63
2019-02-08T00:39:25.523Z,33.60
2019-02-08T00:41:55.858Z,43.80
2019-02-08T00:44:25.823Z,33.13
2019-02-08T00:46:55.885Z,31.87
2019-02-08T00:49:25.898Z,32.20
2019-02-08T00:51:55.901Z,31.60
2019-02-08T00:54:25.865Z,35.17
2019-02-08T00:56:55.881Z,42.90
2019-02-08T00:59:25.893Z,33.87
2019-02-08T01:01:55.986Z,31.70
2019-02-08T01:04:26.082Z,35.00
2019-02-08T01:06:56.065Z,104.00
2019-02-08T01:09:26.314Z,27.73
2019-02-08T01:11:56.332Z,29.80
2019-02-08T01:14:26.317Z,36.53
2019-02-08T01:16:56.396Z,25.97
2019-02-08T01:19:26.542Z,29.10
2019-02-08T01:21:56.593Z,31.10
2019-02-08T01:24:26.549Z,40.07
2019-02-08T01:26:56.560Z,32.50
2019-02-08T01:29:26.548Z,31.33
2019-02-08T01:31:56.630Z,30.20
2019-02-08T01:34:27.560Z,32.30
2019-02-08T01:36:57.707Z,33.47
2019-02-08T01:39:27.738Z,34.20
2019-02-08T01:41:57.678Z,35.90
2019-02-08T01:44:27.680Z,35.40
2019-02-08T01:46:58.393Z,35.93
2019-02-08T01:49:29.696Z,37.40
2019-02-08T01:51:59.781Z,40.53
2019-02-08T01:54:29.762Z,38.60
2019-02-08T01:56:59.750Z,45.87
2019-02-08T01:59:29.750Z,43.23
2019-02-08T02:01:59.747Z,42.50
2019-02-08T02:04:29.767Z,42.33
2019-02-08T02:07:00.103Z,49.17
2019-02-08T02:09:30.197Z,42.93
2019-02-08T02:12:00.309Z,42.97
2019-02-08T02:14:30.504Z,48.10
2019-02-08T02:17:00.572Z,45.87
2019-02-08T02:19:31.044Z,45.67
2019-02-08T02:22:01.133Z,48.57
2019-02-08T02:24:31.356Z,49.20
2019-02-08T02:27:01.594Z,50.03
2019-02-08T02:29:32.168Z,55.20
2019-02-08T02:32:02.156Z,57.77
2019-02-08T02:34:32.280Z,55.90
2019-02-08T02:37:02.500Z,60.40
2019-02-08T02:39:32.575Z,53.87
2019-02-08T02:42:02.586Z,51.90
2019-02-08T02:44:32.973Z,54.27
2019-02-08T02:47:03.142Z,52.90
2019-02-08T02:49:33.189Z,52.87
2019-02-08T02:52:03.202Z,51.03
2019-02-08T02:54:33.725Z,49.47
2019-02-08T02:57:03.949Z,53.03
2019-02-08T02:59:34.318Z,52.60
2019-02-08T03:02:05.000Z,51.27
2019-02-08T03:04:35.628Z,53.73
2019-02-08T03:07:05.925Z,56.47
2019-02-08T03:09:35.936Z,54.30
2019-02-08T03:12:05.965Z,58.77
2019-02-08T03:14:36.142Z,59.20
2019-02-08T03:17:06.462Z,54.17
2019-02-08T03:19:36.477Z,57.50
2019-02-08T03:22:06.665Z,53.43
2019-02-08T03:24:36.729Z,51.30
2019-02-08T03:27:07.038Z,58.90
2019-02-08T03:29:37.168Z,56.43
2019-02-08T03:32:07.826Z,61.50
2019-02-08T03:34:37.964Z,50.80
2019-02-08T03:37:08.192Z,63.27
2019-02-08T03:39:38.265Z,59.37
2019-02-08T03:42:08.326Z,54.53
2019-02-08T03:44:38.521Z,50.87
2019-02-08T03:47:08.680Z,62.50
2019-02-08T03:49:39.013Z,55.37
2019-02-08T03:52:09.134Z,57.40
2019-02-08T03:54:39.309Z,46.57
2019-02-08T03:57:09.657Z,60.53
2019-02-08T03:59:39.711Z,63.90
2019-02-08T04:02:09.995Z,69.30
2019-02-08T04:04:40.213Z,57.43
2019-02-08T04:07:10.287Z,61.90
2019-02-08T04:09:40.289Z,55.60
2019-02-08T04:12:11.586Z,57.20
2019-02-08T04:14:41.901Z,52.53
2019-02-08T04:17:12.020Z,56.20
2019-02-08T04:19:42.201Z,54.50
2019-02-08T04:22:12.498Z,53.17
2019-02-08T04:24:42.609Z,51.43
2019-02-08T04:27:12.583Z,46.90
2019-02-08T04:29:42.590Z,47.13
2019-02-08T04:32:13.026Z,47.73
2019-02-08T04:34:43.292Z,51.83
2019-02-08T04:37:13.421Z,47.17
2019-02-08T04:39:43.417Z,51.03
2019-02-08T04:42:13.944Z,51.27
2019-02-08T04:44:44.092Z,45.93
2019-02-08T04:47:14.136Z,48.53
2019-02-08T04:49:45.613Z,43.47
2019-02-08T04:52:15.601Z,43.50
2019-02-08T04:54:45.676Z,46.67
2019-02-08T04:57:15.684Z,53.07
2019-02-08T04:59:45.700Z,51.83
2019-02-08T05:02:15.837Z,54.87
2019-02-08T05:04:46.017Z,47.17
2019-02-08T05:07:16.136Z,53.77
2019-02-08T05:09:46.081Z,49.27
2019-02-08T05:12:16.174Z,53.17
2019-02-08T05:14:46.114Z,56.53
2019-02-08T05:17:16.634Z,52.50
2019-02-08T05:19:46.855Z,57.13
2019-02-08T05:22:16.857Z,52.50
2019-02-08T05:24:46.960Z,53.67
2019-02-08T05:27:16.905Z,54.53
2019-02-08T05:29:46.975Z,55.10
2019-02-08T05:32:16.953Z,55.23
2019-02-08T05:34:46.948Z,57.03
2019-02-08T05:37:17.105Z,62.30
2019-02-08T05:39:47.210Z,59.60
2019-02-08T05:42:17.169Z,56.20
2019-02-08T05:44:47.185Z,48.27
2019-02-08T05:47:17.309Z,44.00
2019-02-08T05:49:47.424Z,40.50
2019-02-08T05:52:17.465Z,35.23
2019-02-08T05:54:54.294Z,40.23
2019-02-08T05:57:19.338Z,30.17
2019-02-08T05:59:49.321Z,27.93
2019-02-08T06:02:19.362Z,26.73
2019-02-08T06:04:49.339Z,24.77
2019-02-08T06:07:20.164Z,38.77
2019-02-08T06:09:50.193Z,31.30
2019-02-08T06:12:20.300Z,37.83
2019-02-08T06:14:50.259Z,16.17
2019-02-08T06:17:20.390Z,8.87
2019-02-08T06:19:50.402Z,10.37
2019-02-08T06:22:21.621Z,10.30
2019-02-08T06:24:51.786Z,9.73
2019-02-08T06:27:22.129Z,12.23
2019-02-08T06:29:52.109Z,7.00
2019-02-08T06:32:22.112Z,10.00
2019-02-08T06:34:52.707Z,12.10
2019-02-08T06:37:22.705Z,13.50
2019-02-08T06:39:52.717Z,5.43
2019-02-08T06:42:22.741Z,6.60
2019-02-08T06:44:52.726Z,8.80
2019-02-08T06:47:22.873Z,6.73
2019-02-08T06:49:52.890Z,14.27
2019-02-08T06:52:23.106Z,16.20
2019-02-08T06:54:53.117Z,19.47
2019-02-08T06:57:28.780Z,17.27
2019-02-08T07:00:20.618Z,19.63
2019-02-08T07:03:08.512Z,9.23
2019-02-08T07:05:55.961Z,9.87
2019-02-08T07:08:35.658Z,21.23
2019-02-08T07:11:15.041Z,14.70
2019-02-08T07:14:06.713Z,31.67
2019-02-08T07:16:53.093Z,19.03
2019-02-08T07:19:44.773Z,13.17
2019-02-08T07:22:31.896Z,22.13
2019-02-08T07:25:35.687Z,8.67
2019-02-08T07:28:24.668Z,15.70
2019-02-08T07:31:16.699Z,11.57
2019-02-08T07:34:05.532Z,10.50
2019-02-08T07:36:52.945Z,13.50
2019-02-08T07:39:32.429Z,62.10
2019-02-08T07:42:14.092Z,31.40
2019-02-08T07:44:56.428Z,28.00
2019-02-08T07:47:42.147Z,23.40
2019-02-08T07:50:41.928Z,57.90
2019-02-08T07:53:30.898Z,29.73
2019-02-08T07:56:22.636Z,28.47
2019-02-08T07:59:30.008Z,219.07
2019-02-08T08:02:12.101Z,133.57
2019-02-08T08:04:56.001Z,72.87
2019-02-08T08:07:38.623Z,51.67
2019-02-08T08:10:21.100Z,44.97
2019-02-08T08:13:07.287Z,107.40
2019-02-08T08:15:55.613Z,42.20
2019-02-08T08:18:43.613Z,114.77
2019-02-08T08:21:25.378Z,60.93
2019-02-08T08:24:07.148Z,37.00
2019-02-08T08:26:56.365Z,38.20
2019-02-08T08:29:52.755Z,37.73
2019-02-08T08:32:36.400Z,24.43
2019-02-08T08:35:42.825Z,26.13
2019-02-08T08:38:56.333Z,31.10
2019-02-08T08:42:18.308Z,25.97
2019-02-08T08:45:50.282Z,23.70
2019-02-08T08:48:52.624Z,21.70
2019-02-08T08:52:10.010Z,14.57
2019-02-08T08:55:29.781Z,14.70
2019-02-08T08:58:29.458Z,20.37
2019-02-08T09:01:46.009Z,32.30
2019-02-08T09:04:49.502Z,29.17
2019-02-08T09:08:11.777Z,26.43
2019-02-08T09:11:17.434Z,26.60
2019-02-08T09:14:33.297Z,40.27
2019-02-08T09:17:46.114Z,25.90
2019-02-08T09:21:05.305Z,15.20
2019-02-08T09:23:48.782Z,18.20
2019-02-08T09:26:58.217Z,11.43
2019-02-08T09:30:10.964Z,16.30
2019-02-08T09:33:39.318Z,15.43
2019-02-08T09:37:04.942Z,14.90
2019-02-08T09:40:02.266Z,10.63
2019-02-08T09:43:18.028Z,13.53
2019-02-08T09:46:37.794Z,11.87
2019-02-08T09:49:56.405Z,16.60
2019-02-08T09:53:09.560Z,16.30
2019-02-08T09:56:24.640Z,17.03
2019-02-08T09:59:37.534Z,14.17
2019-02-08T10:02:47.182Z,17.10
2019-02-08T10:05:56.638Z,14.33
2019-02-08T10:08:54.165Z,11.80
2019-02-08T10:11:57.346Z,13.00
2019-02-08T10:14:52.684Z,12.50
2019-02-08T10:17:54.941Z,13.27
2019-02-08T10:21:15.462Z,11.63
2019-02-08T10:24:24.536Z,12.60
2019-02-08T10:27:38.249Z,13.73
2019-02-08T10:31:04.489Z,13.20
2019-02-08T10:34:13.218Z,13.23
2019-02-08T10:37:19.757Z,12.23
2019-02-08T10:40:18.648Z,10.60
2019-02-08T10:43:38.542Z,8.67
2019-02-08T10:46:58.334Z,9.83
2019-02-08T10:50:23.091Z,14.20
2019-02-08T10:53:22.697Z,14.70
2019-02-08T10:56:29.366Z,10.60
2019-02-08T10:59:49.781Z,11.17
2019-02-08T11:02:57.894Z,9.17
2019-02-08T11:06:03.486Z,8.93
2019-02-08T11:09:33.409Z,21.30
2019-02-08T11:12:39.096Z,10.30
2019-02-08T11:15:38.862Z,14.40
2019-02-08T11:18:48.753Z,16.17
2019-02-08T11:21:18.868Z,11.73
2019-02-08T11:23:49.537Z,12.47
2019-02-08T11:26:23.068Z,10.50
2019-02-08T11:28:51.452Z,14.90
2019-02-08T11:31:21.462Z,13.50
2019-02-08T11:33:51.565Z,10.33
2019-02-08T11:36:22.072Z,14.70
2019-02-08T11:38:52.081Z,12.53
2019-02-08T11:41:22.077Z,12.70
2019-02-08T11:43:52.230Z,14.23
2019-02-08T11:46:22.180Z,9.30
2019-02-08T11:48:52.664Z,9.97
2019-02-08T11:51:22.669Z,11.87
2019-02-08T11:53:52.841Z,13.63
2019-02-08T11:56:29.760Z,9.63
2019-02-08T11:58:54.465Z,9.97
2019-02-08T12:01:24.463Z,10.40
2019-02-08T12:03:54.468Z,10.60
2019-02-08T12:06:24.457Z,12.97
2019-02-08T12:08:54.545Z,13.60
2019-02-08T12:11:24.676Z,14.23
2019-02-08T12:13:54.693Z,19.13
2019-02-08T12:16:24.700Z,13.57
2019-02-08T12:18:54.874Z,15.90
2019-02-08T12:21:25.491Z,11.10
2019-02-08T12:23:55.608Z,16.10
2019-02-08T12:26:25.582Z,13.33
2019-02-08T12:28:55.591Z,18.70
2019-02-08T12:31:25.604Z,16.00
2019-02-08T12:33:55.629Z,14.73
2019-02-08T12:36:26.408Z,20.27
2019-02-08T12:38:56.380Z,16.30
2019-02-08T12:41:26.836Z,13.87
2019-02-08T12:43:56.813Z,18.60
2019-02-08T12:46:26.841Z,14.47
2019-02-08T12:48:56.806Z,13.27
2019-02-08T12:51:26.808Z,16.77
2019-02-08T12:53:56.829Z,18.20
2019-02-08T12:56:26.840Z,12.93
2019-02-08T12:58:56.798Z,19.37
2019-02-08T13:01:26.825Z,18.73
2019-02-08T13:03:57.036Z,16.80
2019-02-08T13:06:27.087Z,19.50
2019-02-08T13:08:57.055Z,13.60
2019-02-08T13:11:27.171Z,15.23
2019-02-08T13:13:57.445Z,13.83
2019-02-08T13:16:27.529Z,22.53
2019-02-08T13:18:57.513Z,16.80
2019-02-08T13:21:27.948Z,14.10
2019-02-08T13:23:57.977Z,15.43
2019-02-08T13:26:27.981Z,15.27
2019-02-08T13:28:58.125Z,15.00
2019-02-08T13:31:28.174Z,13.73
2019-02-08T13:33:58.204Z,16.00
2019-02-08T13:36:28.337Z,12.47
2019-02-08T13:38:58.342Z,13.27
2019-02-08T13:41:28.549Z,15.97
2019-02-08T13:43:58.683Z,14.47
2019-02-08T13:46:28.693Z,16.17
2019-02-08T13:48:58.721Z,16.13
2019-02-08T13:51:28.764Z,12.23
2019-02-08T13:53:59.972Z,17.73
2019-02-08T13:56:29.949Z,12.13
2019-02-08T13:58:59.928Z,15.20
2019-02-08T14:01:29.994Z,14.27
2019-02-08T14:04:00.296Z,14.20
2019-02-08T14:06:32.001Z,12.73
2019-02-08T14:09:02.028Z,17.03
2019-02-08T14:11:32.021Z,17.77
2019-02-08T14:14:02.619Z,14.20
2019-02-08T14:16:32.889Z,21.10
2019-02-08T14:19:02.885Z,18.73
2019-02-08T14:21:32.862Z,16.53
2019-02-08T14:24:02.900Z,14.20
2019-02-08T14:26:32.900Z,16.97
2019-02-08T14:29:02.990Z,21.03
2019-02-08T14:31:33.081Z,15.97
2019-02-08T14:34:03.445Z,21.00
2019-02-08T14:36:33.445Z,20.03
2019-02-08T14:39:04.891Z,18.63
2019-02-08T14:41:35.100Z,20.90
2019-02-08T14:44:05.478Z,16.87
2019-02-08T14:46:35.589Z,17.87
2019-02-08T14:49:06.589Z,19.23
2019-02-08T14:51:36.778Z,15.50
2019-02-08T14:54:07.223Z,17.00
2019-02-08T14:56:37.448Z,20.30
2019-02-08T14:59:07.899Z,14.57
2019-02-08T15:01:38.173Z,15.90
2019-02-08T15:04:08.460Z,16.50
2019-02-08T15:06:38.781Z,14.57
2019-02-08T15:09:11.538Z,18.83
2019-02-08T15:11:42.833Z,21.50
2019-02-08T15:14:13.087Z,16.03
2019-02-08T15:16:43.155Z,27.53
2019-02-08T15:19:13.332Z,15.50
2019-02-08T15:21:43.884Z,15.37
2019-02-08T15:24:13.976Z,19.90
2019-02-08T15:26:44.006Z,36.13
2019-02-08T15:29:14.004Z,20.60
2019-02-08T15:31:44.713Z,18.93
2019-02-08T15:34:14.768Z,17.97
2019-02-08T15:36:49.176Z,15.67
2019-02-08T15:39:17.193Z,19.27
2019-02-08T15:41:47.250Z,15.83
2019-02-08T15:44:17.373Z,19.30
2019-02-08T15:46:48.901Z,13.57
2019-02-08T15:49:19.296Z,19.37
2019-02-08T15:51:49.317Z,20.43
2019-02-08T15:54:19.485Z,21.07
2019-02-08T15:56:49.533Z,23.43
2019-02-08T15:59:19.537Z,17.00
2019-02-08T16:01:50.065Z,17.73
2019-02-08T16:04:20.252Z,26.73
2019-02-08T16:06:50.240Z,25.10
2019-02-08T16:09:20.532Z,23.57
2019-02-08T16:11:50.816Z,24.73
2019-02-08T16:14:22.008Z,26.10
2019-02-08T16:16:52.005Z,18.70
2019-02-08T16:19:22.066Z,19.67
2019-02-08T16:21:52.172Z,21.03
2019-02-08T16:24:22.698Z,18.70
2019-02-08T16:26:53.232Z,19.53
2019-02-08T16:29:23.614Z,24.43
2019-02-08T16:31:53.660Z,23.83
2019-02-08T16:34:24.209Z,16.37
2019-02-08T16:36:54.363Z,27.77
2019-02-08T16:39:24.407Z,26.47
2019-02-08T16:41:54.398Z,24.17
2019-02-08T16:44:25.052Z,23.23
2019-02-08T16:46:55.337Z,28.20
2019-02-08T16:49:25.390Z,24.83
2019-02-08T16:51:55.522Z,25.20
2019-02-08T16:54:25.614Z,28.17
2019-02-08T16:56:55.694Z,24.60
2019-02-08T16:59:25.700Z,21.07
2019-02-08T17:01:55.833Z,25.23
2019-02-08T17:04:25.896Z,21.40
2019-02-08T17:06:55.869Z,32.47
2019-02-08T17:09:26.297Z,29.30
2019-02-08T17:11:56.363Z,33.77
2019-02-08T17:14:26.349Z,24.77
2019-02-08T17:16:56.409Z,27.43
2019-02-08T17:19:26.415Z,26.67
2019-02-08T17:21:56.797Z,25.03
2019-02-08T17:24:26.906Z,31.17
2019-02-08T17:26:56.925Z,23.23
2019-02-08T17:29:27.085Z,25.70
2019-02-08T17:31:57.157Z,28.07
2019-02-08T17:34:27.255Z,22.10
2019-02-08T17:36:57.211Z,24.87
2019-02-08T17:39:27.218Z,24.30
2019-02-08T17:41:57.207Z,29.37
2019-02-08T17:44:27.261Z,22.77
2019-02-08T17:46:57.348Z,23.90
2019-02-08T17:49:27.293Z,30.97
2019-02-08T17:51:57.265Z,41.67
2019-02-08T17:54:27.284Z,30.80
2019-02-08T17:56:57.224Z,22.33
2019-02-08T17:59:27.441Z,27.47
2019-02-08T18:01:57.450Z,29.77
2019-02-08T18:04:27.482Z,28.20
2019-02-08T18:06:57.507Z,31.20
2019-02-08T18:09:27.516Z,23.53
2019-02-08T18:11:57.677Z,25.53
2019-02-08T18:14:27.669Z,31.00
2019-02-08T18:16:57.813Z,29.50
2019-02-08T18:19:28.485Z,23.80
2019-02-08T18:21:58.629Z,26.73
2019-02-08T18:24:28.591Z,25.77
2019-02-08T18:26:58.774Z,24.80
2019-02-08T18:29:29.071Z,22.97
2019-02-08T18:31:59.068Z,26.90
2019-02-08T18:34:29.188Z,24.30
2019-02-08T18:36:59.366Z,26.10
2019-02-08T18:39:29.345Z,27.83
2019-02-08T18:41:59.355Z,22.00
2019-02-08T18:44:29.453Z,24.57
2019-02-08T18:46:59.644Z,22.77
2019-02-08T18:49:29.729Z,25.97
2019-02-08T18:51:59.784Z,26.90
2019-02-08T18:54:29.761Z,28.83
2019-02-08T18:57:00.357Z,27.20
2019-02-08T18:59:30.366Z,28.30
2019-02-08T19:02:00.421Z,33.07
2019-02-08T19:04:30.421Z,28.30
2019-02-08T19:07:00.739Z,28.93
2019-02-08T19:09:30.773Z,30.50
2019-02-08T19:12:00.766Z,24.43
2019-02-08T19:14:30.881Z,24.30
2019-02-08T19:17:00.933Z,27.60
2019-02-08T19:19:31.137Z,40.70
2019-02-08T19:22:01.325Z,26.40
2019-02-08T19:24:31.442Z,29.17
2019-02-08T19:27:01.517Z,29.00
2019-02-08T19:29:32.377Z,30.23
2019-02-08T19:32:02.960Z,30.57
2019-02-08T19:34:32.987Z,26.53
2019-02-08T19:37:03.133Z,29.07
2019-02-08T19:39:33.159Z,35.23
2019-02-08T19:42:03.256Z,33.23
2019-02-08T19:44:33.276Z,30.40
2019-02-08T19:47:03.322Z,30.47
2019-02-08T19:49:33.347Z,37.60
2019-02-08T19:52:03.826Z,31.60
2019-02-08T19:54:33.989Z,32.83
2019-02-08T19:57:08.141Z,30.23
2019-02-08T19:59:38.201Z,33.67
2019-02-08T20:02:10.315Z,33.77
2019-02-08T20:04:40.741Z,44.03
2019-02-08T20:07:10.791Z,34.20
2019-02-08T20:09:40.785Z,42.17
2019-02-08T20:12:11.371Z,46.80
2019-02-08T20:14:41.461Z,38.87
2019-02-08T20:17:13.118Z,37.17
2019-02-08T20:19:43.212Z,34.70
2019-02-08T20:22:13.480Z,42.93
2019-02-08T20:24:43.750Z,60.13
2019-02-08T20:27:14.049Z,39.10
2019-02-08T20:29:44.053Z,38.93
2019-02-08T20:32:14.366Z,41.80
2019-02-08T20:34:47.341Z,42.77
2019-02-08T20:37:19.809Z,37.00
2019-02-08T20:39:49.858Z,35.40
2019-02-08T20:42:20.767Z,39.80
2019-02-08T20:44:59.659Z,40.60
2019-02-08T20:47:30.261Z,36.60
2019-02-08T20:50:08.362Z,41.40
2019-02-08T20:52:39.008Z,37.87
2019-02-08T20:55:10.010Z,38.47
2019-02-08T20:57:43.060Z,37.47
2019-02-08T21:00:37.409Z,40.73
2019-02-08T21:03:13.335Z,42.10
2019-02-08T21:05:45.774Z,40.90
2019-02-08T21:08:16.754Z,40.17
2019-02-08T21:10:46.929Z,41.63
2019-02-08T21:13:17.782Z,39.07
2019-02-08T21:15:47.951Z,42.00
2019-02-08T21:18:18.390Z,42.10
2019-02-08T21:20:49.441Z,44.10
2019-02-08T21:23:21.114Z,36.43
2019-02-08T21:25:51.841Z,43.37
2019-02-08T21:28:22.544Z,44.63
2019-02-08T21:30:52.677Z,40.67
2019-02-08T21:33:22.969Z,41.80
2019-02-08T21:35:53.145Z,41.47
2019-02-08T21:38:23.535Z,47.60
2019-02-08T21:40:53.897Z,42.60
2019-02-08T21:43:24.055Z,46.77
2019-02-08T21:45:54.066Z,44.27
2019-02-08T21:48:24.304Z,49.47
2019-02-08T21:50:55.293Z,46.40
2019-02-08T21:53:25.665Z,43.73
2019-02-08T21:55:56.041Z,48.40
2019-02-08T21:58:26.057Z,47.97
2019-02-08T22:00:56.153Z,49.10
2019-02-08T22:03:26.203Z,49.63
2019-02-08T22:06:02.544Z,50.70
2019-02-08T22:08:32.590Z,49.37
2019-02-08T22:11:02.609Z,49.50
2019-02-08T22:13:32.882Z,56.60
2019-02-08T22:16:05.005Z,54.10
2019-02-08T22:18:35.162Z,53.00
2019-02-08T22:21:05.345Z,50.40
2019-02-08T22:23:35.340Z,52.00
2019-02-08T22:26:05.760Z,55.67
2019-02-08T22:28:35.800Z,56.90
2019-02-08T22:31:06.580Z,57.67
2019-02-08T22:33:38.672Z,54.63
2019-02-08T22:36:08.716Z,55.00
2019-02-08T22:38:38.828Z,58.70
2019-02-08T22:41:09.026Z,57.87
2019-02-08T22:43:40.188Z,58.40
2019-02-08T22:46:10.356Z,60.67
2019-02-08T22:48:40.325Z,65.67
2019-02-08T22:51:10.433Z,58.40
2019-02-08T22:53:40.355Z,60.87
2019-02-08T22:56:10.408Z,66.30
2019-02-08T22:58:40.464Z,58.40
2019-02-08T23:01:34.081Z,64.87
2019-02-08T23:04:06.594Z,57.33
2019-02-08T23:06:44.174Z,69.00
2019-02-08T23:09:22.063Z,76.93
2019-02-08T23:11:52.345Z,68.90
2019-02-08T23:14:22.734Z,63.23
2019-02-08T23:16:52.724Z,69.03
2019-02-08T23:19:22.704Z,70.30
2019-02-08T23:21:53.165Z,78.63
2019-02-08T23:24:23.232Z,68.27
2019-02-08T23:26:53.247Z,70.23
2019-02-08T23:29:29.993Z,79.10
2019-02-08T23:31:54.812Z,72.07
2019-02-08T23:34:25.460Z,64.93
2019-02-08T23:36:55.560Z,75.30
2019-02-08T23:39:26.042Z,74.73
2019-02-08T23:41:56.453Z,78.33
2019-02-08T23:44:26.645Z,77.97
2019-02-08T23:46:57.028Z,69.53
2019-02-08T23:49:27.133Z,73.93
2019-02-08T23:51:57.865Z,79.67
2019-02-08T23:54:28.120Z,81.87
2019-02-08T23:56:58.427Z,77.73
2019-02-08T23:59:28.384Z,70.33
